sensor_id;sensor_type;location;lat;lon;timestamp;P1;durP1;ratioP1;P2;durP2;ratioP2
26201;SDS011;13944;28.562;77.188;2022-12-16T00:00:34;116.37;;;66.93;;
26201;SDS011;13944;28.562;77.188;2022-12-16T00:03:00;116.83;;;67.80;;
26201;SDS011;13944;28.562;77.188;2022-12-16T00:05:27;116.90;;;64.40;;
26201;SDS011;13944;28.562;77.188;2022-12-16T00:07:54;104.67;;;63.73;;
26201;SDS011;13944;28.562;77.188;2022-12-16T00:10:21;101.17;;;63.67;;
26201;SDS011;13944;28.562;77.188;2022-12-16T00:12:47;114.70;;;64.80;;
26201;SDS011;13944;28.562;77.188;2022-12-16T00:15:14;108.73;;;65.27;;
26201;SDS011;13944;28.562;77.188;2022-12-16T00:17:40;108.73;;;65.53;;
26201;SDS011;13944;28.562;77.188;2022-12-16T00:20:07;107.10;;;65.20;;
26201;SDS011;13944;28.562;77.188;2022-12-16T00:22:34;102.33;;;63.63;;
26201;SDS011;13944;28.562;77.188;2022-12-16T00:25:00;104.17;;;64.40;;
26201;SDS011;13944;28.562;77.188;2022-12-16T00:27:27;110.20;;;66.43;;
26201;SDS011;13944;28.562;77.188;2022-12-16T00:29:53;117.43;;;66.73;;
26201;SDS011;13944;28.562;77.188;2022-12-16T00:32:20;116.63;;;67.67;;
26201;SDS011;13944;28.562;77.188;2022-12-16T00:34:46;113.27;;;70.47;;
26201;SDS011;13944;28.562;77.188;2022-12-16T00:37:13;106.67;;;66.43;;
26201;SDS011;13944;28.562;77.188;2022-12-16T00:39:39;126.03;;;67.10;;
26201;SDS011;13944;28.562;77.188;2022-12-16T00:42:06;108.63;;;65.33;;
26201;SDS011;13944;28.562;77.188;2022-12-16T00:44:32;105.83;;;65.50;;
26201;SDS011;13944;28.562;77.188;2022-12-16T00:46:59;114.37;;;69.07;;
26201;SDS011;13944;28.562;77.188;2022-12-16T00:49:25;115.20;;;71.47;;
26201;SDS011;13944;28.562;77.188;2022-12-16T00:51:52;118.17;;;71.03;;
26201;SDS011;13944;28.562;77.188;2022-12-16T00:54:18;117.90;;;72.53;;
26201;SDS011;13944;28.562;77.188;2022-12-16T00:56:45;128.30;;;74.60;;
26201;SDS011;13944;28.562;77.188;2022-12-16T00:59:11;125.70;;;72.33;;
26201;SDS011;13944;28.562;77.188;2022-12-16T01:01:38;120.90;;;72.47;;
26201;SDS011;13944;28.562;77.188;2022-12-16T01:04:04;124.73;;;73.30;;
26201;SDS011;13944;28.562;77.188;2022-12-16T01:06:31;138.47;;;73.93;;
26201;SDS011;13944;28.562;77.188;2022-12-16T01:08:57;240.60;;;81.60;;
26201;SDS011;13944;28.562;77.188;2022-12-16T01:11:24;289.73;;;85.00;;
26201;SDS011;13944;28.562;77.188;2022-12-16T01:13:51;408.07;;;96.00;;
26201;SDS011;13944;28.562;77.188;2022-12-16T01:16:17;374.13;;;88.87;;
26201;SDS011;13944;28.562;77.188;2022-12-16T01:18:44;237.30;;;79.53;;
26201;SDS011;13944;28.562;77.188;2022-12-16T01:21:11;189.40;;;79.25;;
26201;SDS011;13944;28.562;77.188;2022-12-16T01:23:39;126.57;;;72.30;;
26201;SDS011;13944;28.562;77.188;2022-12-16T01:26:05;137.47;;;74.77;;
26201;SDS011;13944;28.562;77.188;2022-12-16T01:28:32;132.30;;;72.57;;
26201;SDS011;13944;28.562;77.188;2022-12-16T01:30:59;134.23;;;71.13;;
26201;SDS011;13944;28.562;77.188;2022-12-16T01:33:28;118.47;;;72.33;;
26201;SDS011;13944;28.562;77.188;2022-12-16T01:35:59;114.97;;;68.90;;
26201;SDS011;13944;28.562;77.188;2022-12-16T01:38:26;117.20;;;69.97;;
26201;SDS011;13944;28.562;77.188;2022-12-16T01:40:52;122.03;;;72.57;;
26201;SDS011;13944;28.562;77.188;2022-12-16T01:43:19;128.43;;;74.03;;
26201;SDS011;13944;28.562;77.188;2022-12-16T01:45:47;155.27;;;76.03;;
26201;SDS011;13944;28.562;77.188;2022-12-16T01:50:40;137.37;;;76.47;;
26201;SDS011;13944;28.562;77.188;2022-12-16T01:53:07;134.50;;;75.93;;
26201;SDS011;13944;28.562;77.188;2022-12-16T01:55:36;131.90;;;74.17;;
26201;SDS011;13944;28.562;77.188;2022-12-16T01:58:05;142.80;;;76.73;;
26201;SDS011;13944;28.562;77.188;2022-12-16T02:00:34;174.93;;;83.97;;
26201;SDS011;13944;28.562;77.188;2022-12-16T02:03:01;187.87;;;89.80;;
26201;SDS011;13944;28.562;77.188;2022-12-16T02:05:28;161.37;;;87.87;;
26201;SDS011;13944;28.562;77.188;2022-12-16T02:07:59;168.13;;;85.97;;
26201;SDS011;13944;28.562;77.188;2022-12-16T02:10:30;165.87;;;88.23;;
26201;SDS011;13944;28.562;77.188;2022-12-16T02:13:01;149.37;;;80.77;;
26201;SDS011;13944;28.562;77.188;2022-12-16T02:15:51;136.27;;;80.83;;
26201;SDS011;13944;28.562;77.188;2022-12-16T02:18:29;158.00;;;86.37;;
26201;SDS011;13944;28.562;77.188;2022-12-16T02:21:05;154.57;;;88.73;;
26201;SDS011;13944;28.562;77.188;2022-12-16T02:26:25;184.63;;;93.83;;
26201;SDS011;13944;28.562;77.188;2022-12-16T02:39:28;143.73;;;84.13;;
26201;SDS011;13944;28.562;77.188;2022-12-16T02:44:52;154.47;;;82.93;;
26201;SDS011;13944;28.562;77.188;2022-12-16T02:47:20;138.70;;;80.23;;
26201;SDS011;13944;28.562;77.188;2022-12-16T02:49:48;139.63;;;80.50;;
26201;SDS011;13944;28.562;77.188;2022-12-16T02:52:16;139.60;;;80.87;;
26201;SDS011;13944;28.562;77.188;2022-12-16T02:54:43;139.70;;;80.07;;
26201;SDS011;13944;28.562;77.188;2022-12-16T02:59:46;130.17;;;78.73;;
26201;SDS011;13944;28.562;77.188;2022-12-16T03:02:22;129.90;;;80.17;;
26201;SDS011;13944;28.562;77.188;2022-12-16T03:04:50;127.00;;;74.80;;
26201;SDS011;13944;28.562;77.188;2022-12-16T03:07:20;131.07;;;72.37;;
26201;SDS011;13944;28.562;77.188;2022-12-16T03:09:47;124.93;;;69.63;;
26201;SDS011;13944;28.562;77.188;2022-12-16T03:12:15;119.67;;;68.77;;
26201;SDS011;13944;28.562;77.188;2022-12-16T03:14:44;121.87;;;68.90;;
26201;SDS011;13944;28.562;77.188;2022-12-16T03:17:12;113.23;;;65.10;;
26201;SDS011;13944;28.562;77.188;2022-12-16T03:19:39;118.10;;;64.97;;
26201;SDS011;13944;28.562;77.188;2022-12-16T03:22:13;108.37;;;60.83;;
26201;SDS011;13944;28.562;77.188;2022-12-16T03:24:42;105.10;;;62.70;;
26201;SDS011;13944;28.562;77.188;2022-12-16T03:29:48;117.70;;;59.83;;
26201;SDS011;13944;28.562;77.188;2022-12-16T03:32:36;107.43;;;60.90;;
26201;SDS011;13944;28.562;77.188;2022-12-16T03:38:02;119.40;;;63.40;;
26201;SDS011;13944;28.562;77.188;2022-12-16T03:40:30;116.83;;;63.47;;
26201;SDS011;13944;28.562;77.188;2022-12-16T03:42:58;128.27;;;66.67;;
26201;SDS011;13944;28.562;77.188;2022-12-16T03:45:27;108.37;;;63.17;;
26201;SDS011;13944;28.562;77.188;2022-12-16T03:47:55;117.87;;;65.23;;
26201;SDS011;13944;28.562;77.188;2022-12-16T03:50:24;113.20;;;65.20;;
26201;SDS011;13944;28.562;77.188;2022-12-16T03:52:51;128.20;;;64.83;;
26201;SDS011;13944;28.562;77.188;2022-12-16T03:55:18;120.20;;;63.43;;
26201;SDS011;13944;28.562;77.188;2022-12-16T03:57:44;148.10;;;72.07;;
26201;SDS011;13944;28.562;77.188;2022-12-16T04:00:11;124.10;;;67.33;;
26201;SDS011;13944;28.562;77.188;2022-12-16T04:02:42;114.13;;;64.27;;
26201;SDS011;13944;28.562;77.188;2022-12-16T04:05:09;114.27;;;63.43;;
26201;SDS011;13944;28.562;77.188;2022-12-16T04:07:35;115.53;;;64.60;;
26201;SDS011;13944;28.562;77.188;2022-12-16T04:10:02;111.90;;;61.77;;
26201;SDS011;13944;28.562;77.188;2022-12-16T04:12:29;110.80;;;62.07;;
26201;SDS011;13944;28.562;77.188;2022-12-16T04:15:14;114.33;;;63.13;;
26201;SDS011;13944;28.562;77.188;2022-12-16T04:17:59;112.93;;;65.23;;
26201;SDS011;13944;28.562;77.188;2022-12-16T04:20:53;106.87;;;61.20;;
26201;SDS011;13944;28.562;77.188;2022-12-16T04:23:49;107.10;;;62.30;;
26201;SDS011;13944;28.562;77.188;2022-12-16T04:26:35;104.30;;;60.57;;
26201;SDS011;13944;28.562;77.188;2022-12-16T04:29:21;103.73;;;60.43;;
26201;SDS011;13944;28.562;77.188;2022-12-16T04:31:48;102.37;;;60.27;;
26201;SDS011;13944;28.562;77.188;2022-12-16T04:34:15;105.13;;;60.17;;
26201;SDS011;13944;28.562;77.188;2022-12-16T04:36:52;117.60;;;63.43;;
26201;SDS011;13944;28.562;77.188;2022-12-16T04:39:48;105.70;;;59.73;;
26201;SDS011;13944;28.562;77.188;2022-12-16T04:42:33;94.27;;;54.53;;
26201;SDS011;13944;28.562;77.188;2022-12-16T04:45:18;99.93;;;54.87;;
26201;SDS011;13944;28.562;77.188;2022-12-16T04:48:03;97.97;;;55.27;;
26201;SDS011;13944;28.562;77.188;2022-12-16T04:50:48;96.27;;;52.87;;
26201;SDS011;13944;28.562;77.188;2022-12-16T04:53:33;98.73;;;56.20;;
26201;SDS011;13944;28.562;77.188;2022-12-16T04:56:18;106.27;;;54.63;;
26201;SDS011;13944;28.562;77.188;2022-12-16T04:59:03;102.20;;;53.53;;
26201;SDS011;13944;28.562;77.188;2022-12-16T05:01:48;95.03;;;51.77;;
26201;SDS011;13944;28.562;77.188;2022-12-16T05:04:33;91.40;;;51.47;;
26201;SDS011;13944;28.562;77.188;2022-12-16T05:07:18;99.10;;;53.47;;
26201;SDS011;13944;28.562;77.188;2022-12-16T05:10:03;96.03;;;52.90;;
26201;SDS011;13944;28.562;77.188;2022-12-16T05:12:48;89.93;;;51.20;;
26201;SDS011;13944;28.562;77.188;2022-12-16T05:15:36;98.90;;;54.20;;
26201;SDS011;13944;28.562;77.188;2022-12-16T05:18:21;94.93;;;50.23;;
26201;SDS011;13944;28.562;77.188;2022-12-16T05:21:06;93.60;;;48.50;;
26201;SDS011;13944;28.562;77.188;2022-12-16T05:23:51;80.70;;;44.90;;
26201;SDS011;13944;28.562;77.188;2022-12-16T05:26:36;99.00;;;52.93;;
26201;SDS011;13944;28.562;77.188;2022-12-16T05:29:21;94.33;;;50.93;;
26201;SDS011;13944;28.562;77.188;2022-12-16T05:32:06;91.07;;;49.83;;
26201;SDS011;13944;28.562;77.188;2022-12-16T05:34:51;90.67;;;46.33;;
26201;SDS011;13944;28.562;77.188;2022-12-16T05:37:36;79.87;;;45.70;;
26201;SDS011;13944;28.562;77.188;2022-12-16T05:40:21;74.53;;;43.70;;
26201;SDS011;13944;28.562;77.188;2022-12-16T05:43:06;77.43;;;43.03;;
26201;SDS011;13944;28.562;77.188;2022-12-16T05:45:51;74.07;;;45.37;;
26201;SDS011;13944;28.562;77.188;2022-12-16T05:48:36;84.17;;;46.40;;
26201;SDS011;13944;28.562;77.188;2022-12-16T05:51:21;82.13;;;46.60;;
26201;SDS011;13944;28.562;77.188;2022-12-16T05:54:26;71.93;;;41.20;;
26201;SDS011;13944;28.562;77.188;2022-12-16T05:57:11;95.40;;;53.53;;
26201;SDS011;13944;28.562;77.188;2022-12-16T05:59:56;72.23;;;42.90;;
26201;SDS011;13944;28.562;77.188;2022-12-16T06:02:41;83.33;;;47.80;;
26201;SDS011;13944;28.562;77.188;2022-12-16T06:05:26;75.47;;;46.47;;
26201;SDS011;13944;28.562;77.188;2022-12-16T06:08:11;82.10;;;48.70;;
26201;SDS011;13944;28.562;77.188;2022-12-16T06:11:07;75.40;;;43.57;;
26201;SDS011;13944;28.562;77.188;2022-12-16T06:13:52;71.20;;;45.73;;
26201;SDS011;13944;28.562;77.188;2022-12-16T06:16:37;95.83;;;51.73;;
26201;SDS011;13944;28.562;77.188;2022-12-16T06:19:22;76.17;;;48.67;;
26201;SDS011;13944;28.562;77.188;2022-12-16T06:22:07;72.50;;;43.47;;
26201;SDS011;13944;28.562;77.188;2022-12-16T06:24:53;71.73;;;42.27;;
26201;SDS011;13944;28.562;77.188;2022-12-16T06:27:38;71.63;;;44.97;;
26201;SDS011;13944;28.562;77.188;2022-12-16T06:30:23;72.60;;;44.77;;
26201;SDS011;13944;28.562;77.188;2022-12-16T06:33:09;69.50;;;41.63;;
26201;SDS011;13944;28.562;77.188;2022-12-16T06:35:54;76.47;;;45.23;;
26201;SDS011;13944;28.562;77.188;2022-12-16T06:38:39;74.43;;;48.33;;
26201;SDS011;13944;28.562;77.188;2022-12-16T06:41:24;76.80;;;46.63;;
26201;SDS011;13944;28.562;77.188;2022-12-16T06:44:09;83.27;;;48.33;;
26201;SDS011;13944;28.562;77.188;2022-12-16T06:46:54;85.10;;;49.40;;
26201;SDS011;13944;28.562;77.188;2022-12-16T06:49:39;77.07;;;49.57;;
26201;SDS011;13944;28.562;77.188;2022-12-16T06:52:23;73.00;;;45.87;;
26201;SDS011;13944;28.562;77.188;2022-12-16T06:55:08;80.77;;;52.33;;
26201;SDS011;13944;28.562;77.188;2022-12-16T06:57:57;72.23;;;50.00;;
26201;SDS011;13944;28.562;77.188;2022-12-16T07:00:42;74.93;;;48.50;;
26201;SDS011;13944;28.562;77.188;2022-12-16T07:03:27;82.50;;;49.53;;
26201;SDS011;13944;28.562;77.188;2022-12-16T07:06:12;69.63;;;48.17;;
26201;SDS011;13944;28.562;77.188;2022-12-16T07:08:57;84.50;;;51.23;;
26201;SDS011;13944;28.562;77.188;2022-12-16T07:11:42;93.67;;;53.00;;
26201;SDS011;13944;28.562;77.188;2022-12-16T07:14:27;86.53;;;52.90;;
26201;SDS011;13944;28.562;77.188;2022-12-16T07:17:12;75.67;;;48.53;;
26201;SDS011;13944;28.562;77.188;2022-12-16T07:20:05;77.40;;;50.00;;
26201;SDS011;13944;28.562;77.188;2022-12-16T07:22:50;82.23;;;51.93;;
26201;SDS011;13944;28.562;77.188;2022-12-16T07:25:35;84.27;;;52.43;;
26201;SDS011;13944;28.562;77.188;2022-12-16T07:28:20;81.97;;;52.37;;
26201;SDS011;13944;28.562;77.188;2022-12-16T07:31:05;71.27;;;47.47;;
26201;SDS011;13944;28.562;77.188;2022-12-16T07:33:50;71.97;;;45.87;;
26201;SDS011;13944;28.562;77.188;2022-12-16T07:36:35;76.87;;;47.57;;
26201;SDS011;13944;28.562;77.188;2022-12-16T07:39:20;73.37;;;46.43;;
26201;SDS011;13944;28.562;77.188;2022-12-16T07:42:05;77.63;;;48.93;;
26201;SDS011;13944;28.562;77.188;2022-12-16T07:44:51;76.33;;;48.80;;
26201;SDS011;13944;28.562;77.188;2022-12-16T07:47:35;71.67;;;45.90;;
26201;SDS011;13944;28.562;77.188;2022-12-16T07:50:20;79.57;;;48.13;;
26201;SDS011;13944;28.562;77.188;2022-12-16T07:53:06;80.80;;;51.37;;
26201;SDS011;13944;28.562;77.188;2022-12-16T07:55:51;82.60;;;52.67;;
26201;SDS011;13944;28.562;77.188;2022-12-16T07:58:36;82.70;;;54.27;;
26201;SDS011;13944;28.562;77.188;2022-12-16T08:01:21;79.07;;;48.53;;
26201;SDS011;13944;28.562;77.188;2022-12-16T08:04:06;72.53;;;47.10;;
26201;SDS011;13944;28.562;77.188;2022-12-16T08:06:51;74.57;;;46.13;;
26201;SDS011;13944;28.562;77.188;2022-12-16T08:09:36;76.70;;;45.93;;
26201;SDS011;13944;28.562;77.188;2022-12-16T08:12:38;71.50;;;47.80;;
26201;SDS011;13944;28.562;77.188;2022-12-16T08:15:23;74.53;;;49.27;;
26201;SDS011;13944;28.562;77.188;2022-12-16T08:18:07;81.00;;;53.30;;
26201;SDS011;13944;28.562;77.188;2022-12-16T08:20:52;76.10;;;47.30;;
26201;SDS011;13944;28.562;77.188;2022-12-16T08:23:38;86.37;;;52.63;;
26201;SDS011;13944;28.562;77.188;2022-12-16T08:26:23;71.23;;;48.70;;
26201;SDS011;13944;28.562;77.188;2022-12-16T08:29:09;80.30;;;49.63;;
26201;SDS011;13944;28.562;77.188;2022-12-16T08:31:54;71.93;;;45.73;;
26201;SDS011;13944;28.562;77.188;2022-12-16T08:34:39;71.17;;;47.77;;
26201;SDS011;13944;28.562;77.188;2022-12-16T08:37:24;73.80;;;46.67;;
26201;SDS011;13944;28.562;77.188;2022-12-16T08:40:09;66.10;;;41.67;;
26201;SDS011;13944;28.562;77.188;2022-12-16T08:42:57;61.57;;;41.80;;
26201;SDS011;13944;28.562;77.188;2022-12-16T08:45:42;70.17;;;43.43;;
26201;SDS011;13944;28.562;77.188;2022-12-16T08:48:27;72.77;;;43.63;;
26201;SDS011;13944;28.562;77.188;2022-12-16T08:51:12;68.87;;;44.70;;
26201;SDS011;13944;28.562;77.188;2022-12-16T08:53:57;73.37;;;44.77;;
26201;SDS011;13944;28.562;77.188;2022-12-16T08:56:42;75.23;;;44.40;;
26201;SDS011;13944;28.562;77.188;2022-12-16T08:59:27;67.07;;;44.53;;
26201;SDS011;13944;28.562;77.188;2022-12-16T09:02:12;66.93;;;45.97;;
26201;SDS011;13944;28.562;77.188;2022-12-16T09:04:57;73.37;;;44.87;;
26201;SDS011;13944;28.562;77.188;2022-12-16T09:08:02;72.87;;;46.30;;
26201;SDS011;13944;28.562;77.188;2022-12-16T09:10:47;53.90;;;37.80;;
26201;SDS011;13944;28.562;77.188;2022-12-16T09:13:32;59.03;;;38.97;;
26201;SDS011;13944;28.562;77.188;2022-12-16T09:16:17;54.77;;;38.10;;
26201;SDS011;13944;28.562;77.188;2022-12-16T09:19:02;58.23;;;38.20;;
26201;SDS011;13944;28.562;77.188;2022-12-16T09:21:47;53.33;;;34.03;;
26201;SDS011;13944;28.562;77.188;2022-12-16T09:24:32;54.33;;;35.23;;
26201;SDS011;13944;28.562;77.188;2022-12-16T09:27:17;56.00;;;36.50;;
26201;SDS011;13944;28.562;77.188;2022-12-16T09:30:02;65.80;;;39.70;;
26201;SDS011;13944;28.562;77.188;2022-12-16T09:32:47;65.60;;;37.73;;
26201;SDS011;13944;28.562;77.188;2022-12-16T09:35:32;52.97;;;33.60;;
26201;SDS011;13944;28.562;77.188;2022-12-16T09:38:17;51.53;;;36.50;;
26201;SDS011;13944;28.562;77.188;2022-12-16T09:44:08;62.00;;;40.27;;
26201;SDS011;13944;28.562;77.188;2022-12-16T09:52:25;65.50;;;39.33;;
26201;SDS011;13944;28.562;77.188;2022-12-16T09:55:21;55.27;;;33.60;;
26201;SDS011;13944;28.562;77.188;2022-12-16T09:58:07;55.57;;;34.43;;
26201;SDS011;13944;28.562;77.188;2022-12-16T10:00:55;62.87;;;35.07;;
26201;SDS011;13944;28.562;77.188;2022-12-16T10:03:41;65.67;;;39.17;;
26201;SDS011;13944;28.562;77.188;2022-12-16T10:15:29;61.57;;;39.03;;
26201;SDS011;13944;28.562;77.188;2022-12-16T10:21:22;65.17;;;37.33;;
26201;SDS011;13944;28.562;77.188;2022-12-16T10:24:32;66.43;;;38.50;;
26201;SDS011;13944;28.562;77.188;2022-12-16T10:27:23;66.33;;;38.67;;
26201;SDS011;13944;28.562;77.188;2022-12-16T10:30:12;61.87;;;38.10;;
26201;SDS011;13944;28.562;77.188;2022-12-16T10:32:58;55.87;;;34.93;;
26201;SDS011;13944;28.562;77.188;2022-12-16T10:35:45;60.37;;;35.17;;
26201;SDS011;13944;28.562;77.188;2022-12-16T10:38:39;57.73;;;37.60;;
26201;SDS011;13944;28.562;77.188;2022-12-16T10:41:27;54.50;;;35.43;;
26201;SDS011;13944;28.562;77.188;2022-12-16T10:44:32;62.07;;;37.53;;
26201;SDS011;13944;28.562;77.188;2022-12-16T10:47:18;53.53;;;32.97;;
26201;SDS011;13944;28.562;77.188;2022-12-16T10:50:03;50.20;;;32.10;;
26201;SDS011;13944;28.562;77.188;2022-12-16T10:55:53;51.90;;;32.40;;
26201;SDS011;13944;28.562;77.188;2022-12-16T10:58:44;57.53;;;36.50;;
26201;SDS011;13944;28.562;77.188;2022-12-16T11:01:30;60.93;;;34.80;;
26201;SDS011;13944;28.562;77.188;2022-12-16T11:04:30;55.20;;;32.70;;
26201;SDS011;13944;28.562;77.188;2022-12-16T11:07:32;62.27;;;35.63;;
26201;SDS011;13944;28.562;77.188;2022-12-16T11:13:48;43.93;;;29.57;;
26201;SDS011;13944;28.562;77.188;2022-12-16T11:16:16;50.57;;;31.10;;
26201;SDS011;13944;28.562;77.188;2022-12-16T11:19:01;59.03;;;30.83;;
26201;SDS011;13944;28.562;77.188;2022-12-16T11:21:46;52.33;;;32.07;;
26201;SDS011;13944;28.562;77.188;2022-12-16T11:24:31;68.53;;;34.97;;
26201;SDS011;13944;28.562;77.188;2022-12-16T11:27:23;62.50;;;33.57;;
26201;SDS011;13944;28.562;77.188;2022-12-16T11:30:21;70.97;;;38.30;;
26201;SDS011;13944;28.562;77.188;2022-12-16T11:36:13;70.50;;;40.97;;
26201;SDS011;13944;28.562;77.188;2022-12-16T11:39:00;69.37;;;40.83;;
26201;SDS011;13944;28.562;77.188;2022-12-16T11:41:47;79.60;;;43.30;;
26201;SDS011;13944;28.562;77.188;2022-12-16T11:44:43;77.97;;;40.87;;
26201;SDS011;13944;28.562;77.188;2022-12-16T11:50:14;87.13;;;47.17;;
26201;SDS011;13944;28.562;77.188;2022-12-16T11:53:00;88.70;;;47.43;;
26201;SDS011;13944;28.562;77.188;2022-12-16T11:55:47;86.60;;;46.00;;
26201;SDS011;13944;28.562;77.188;2022-12-16T11:58:41;84.73;;;46.00;;
26201;SDS011;13944;28.562;77.188;2022-12-16T12:01:30;88.03;;;49.93;;
26201;SDS011;13944;28.562;77.188;2022-12-16T12:04:16;93.80;;;50.60;;
26201;SDS011;13944;28.562;77.188;2022-12-16T12:10:09;103.93;;;56.03;;
26201;SDS011;13944;28.562;77.188;2022-12-16T12:13:04;103.40;;;56.93;;
26201;SDS011;13944;28.562;77.188;2022-12-16T12:19:08;106.13;;;58.27;;
26201;SDS011;13944;28.562;77.188;2022-12-16T12:22:00;107.67;;;58.03;;
26201;SDS011;13944;28.562;77.188;2022-12-16T12:24:58;104.03;;;58.27;;
26201;SDS011;13944;28.562;77.188;2022-12-16T12:27:48;108.20;;;54.67;;
26201;SDS011;13944;28.562;77.188;2022-12-16T12:30:43;114.00;;;58.43;;
26201;SDS011;13944;28.562;77.188;2022-12-16T12:33:42;110.13;;;59.23;;
26201;SDS011;13944;28.562;77.188;2022-12-16T12:44:59;112.90;;;64.17;;
26201;SDS011;13944;28.562;77.188;2022-12-16T12:47:55;110.43;;;65.93;;
26201;SDS011;13944;28.562;77.188;2022-12-16T12:50:48;113.17;;;67.90;;
26201;SDS011;13944;28.562;77.188;2022-12-16T12:56:56;120.90;;;70.73;;
26201;SDS011;13944;28.562;77.188;2022-12-16T13:05:42;147.30;;;88.90;;
26201;SDS011;13944;28.562;77.188;2022-12-16T13:11:23;172.27;;;105.17;;
26201;SDS011;13944;28.562;77.188;2022-12-16T13:14:52;163.27;;;103.93;;
26201;SDS011;13944;28.562;77.188;2022-12-16T13:17:19;168.20;;;108.63;;
26201;SDS011;13944;28.562;77.188;2022-12-16T13:26:11;150.03;;;98.90;;
26201;SDS011;13944;28.562;77.188;2022-12-16T13:29:20;151.27;;;97.30;;
26201;SDS011;13944;28.562;77.188;2022-12-16T13:32:03;160.53;;;99.30;;
26201;SDS011;13944;28.562;77.188;2022-12-16T13:35:02;158.93;;;106.60;;
26201;SDS011;13944;28.562;77.188;2022-12-16T13:37:55;166.33;;;112.77;;
26201;SDS011;13944;28.562;77.188;2022-12-16T13:46:37;192.00;;;123.97;;
26201;SDS011;13944;28.562;77.188;2022-12-16T13:52:21;210.27;;;127.17;;
26201;SDS011;13944;28.562;77.188;2022-12-16T13:55:17;203.47;;;127.50;;
26201;SDS011;13944;28.562;77.188;2022-12-16T13:58:04;209.17;;;124.80;;
26201;SDS011;13944;28.562;77.188;2022-12-16T14:00:54;188.87;;;120.13;;
26201;SDS011;13944;28.562;77.188;2022-12-16T14:03:44;198.03;;;122.43;;
26201;SDS011;13944;28.562;77.188;2022-12-16T14:06:31;194.00;;;126.60;;
26201;SDS011;13944;28.562;77.188;2022-12-16T14:09:32;201.47;;;128.87;;
26201;SDS011;13944;28.562;77.188;2022-12-16T14:12:29;212.17;;;130.60;;
26201;SDS011;13944;28.562;77.188;2022-12-16T14:15:31;212.43;;;134.70;;
26201;SDS011;13944;28.562;77.188;2022-12-16T14:21:41;216.97;;;140.20;;
26201;SDS011;13944;28.562;77.188;2022-12-16T14:24:29;215.33;;;141.17;;
26201;SDS011;13944;28.562;77.188;2022-12-16T14:27:18;227.13;;;147.10;;
26201;SDS011;13944;28.562;77.188;2022-12-16T14:30:24;235.90;;;149.87;;
26201;SDS011;13944;28.562;77.188;2022-12-16T14:33:16;241.03;;;151.07;;
26201;SDS011;13944;28.562;77.188;2022-12-16T14:36:01;250.63;;;155.60;;
26201;SDS011;13944;28.562;77.188;2022-12-16T14:38:46;244.13;;;153.83;;
26201;SDS011;13944;28.562;77.188;2022-12-16T14:41:32;234.03;;;156.07;;
26201;SDS011;13944;28.562;77.188;2022-12-16T14:44:19;236.97;;;155.50;;
26201;SDS011;13944;28.562;77.188;2022-12-16T14:47:04;244.60;;;157.93;;
26201;SDS011;13944;28.562;77.188;2022-12-16T14:49:50;236.40;;;155.37;;
26201;SDS011;13944;28.562;77.188;2022-12-16T14:52:36;239.57;;;156.40;;
26201;SDS011;13944;28.562;77.188;2022-12-16T14:55:28;244.30;;;159.83;;
26201;SDS011;13944;28.562;77.188;2022-12-16T14:58:17;253.10;;;164.63;;
26201;SDS011;13944;28.562;77.188;2022-12-16T15:01:13;242.53;;;160.77;;
26201;SDS011;13944;28.562;77.188;2022-12-16T15:03:58;264.27;;;173.07;;
26201;SDS011;13944;28.562;77.188;2022-12-16T15:06:45;266.17;;;172.20;;
26201;SDS011;13944;28.562;77.188;2022-12-16T15:09:33;237.23;;;159.30;;
26201;SDS011;13944;28.562;77.188;2022-12-16T15:12:21;248.90;;;167.53;;
26201;SDS011;13944;28.562;77.188;2022-12-16T15:15:13;260.63;;;178.43;;
26201;SDS011;13944;28.562;77.188;2022-12-16T15:17:59;263.73;;;182.00;;
26201;SDS011;13944;28.562;77.188;2022-12-16T15:20:51;276.23;;;186.07;;
26201;SDS011;13944;28.562;77.188;2022-12-16T15:23:43;270.70;;;189.83;;
26201;SDS011;13944;28.562;77.188;2022-12-16T15:26:29;271.07;;;188.83;;
26201;SDS011;13944;28.562;77.188;2022-12-16T15:29:28;296.95;;;207.57;;
26201;SDS011;13944;28.562;77.188;2022-12-16T15:32:26;292.00;;;196.33;;
26201;SDS011;13944;28.562;77.188;2022-12-16T15:35:25;271.17;;;192.20;;
26201;SDS011;13944;28.562;77.188;2022-12-16T15:40:55;272.17;;;186.67;;
26201;SDS011;13944;28.562;77.188;2022-12-16T15:43:40;280.07;;;189.27;;
26201;SDS011;13944;28.562;77.188;2022-12-16T15:46:26;288.10;;;187.03;;
26201;SDS011;13944;28.562;77.188;2022-12-16T15:49:18;294.97;;;184.67;;
26201;SDS011;13944;28.562;77.188;2022-12-16T15:55:25;281.33;;;181.20;;
26201;SDS011;13944;28.562;77.188;2022-12-16T15:58:19;277.87;;;176.77;;
26201;SDS011;13944;28.562;77.188;2022-12-16T16:01:05;262.40;;;175.23;;
26201;SDS011;13944;28.562;77.188;2022-12-16T16:03:51;261.40;;;178.33;;
26201;SDS011;13944;28.562;77.188;2022-12-16T16:06:37;260.00;;;174.37;;
26201;SDS011;13944;28.562;77.188;2022-12-16T16:09:27;254.90;;;172.67;;
26201;SDS011;13944;28.562;77.188;2022-12-16T16:12:13;273.40;;;177.03;;
26201;SDS011;13944;28.562;77.188;2022-12-16T16:14:58;255.07;;;174.00;;
26201;SDS011;13944;28.562;77.188;2022-12-16T16:17:43;262.80;;;173.97;;
26201;SDS011;13944;28.562;77.188;2022-12-16T16:20:30;264.87;;;181.87;;
26201;SDS011;13944;28.562;77.188;2022-12-16T16:23:16;277.23;;;177.13;;
26201;SDS011;13944;28.562;77.188;2022-12-16T16:26:01;265.97;;;173.13;;
26201;SDS011;13944;28.562;77.188;2022-12-16T16:28:46;273.50;;;175.37;;
26201;SDS011;13944;28.562;77.188;2022-12-16T16:31:31;271.43;;;176.83;;
26201;SDS011;13944;28.562;77.188;2022-12-16T16:34:16;265.97;;;172.13;;
26201;SDS011;13944;28.562;77.188;2022-12-16T16:37:01;255.43;;;171.17;;
26201;SDS011;13944;28.562;77.188;2022-12-16T16:39:46;261.33;;;173.23;;
26201;SDS011;13944;28.562;77.188;2022-12-16T16:42:42;258.33;;;171.97;;
26201;SDS011;13944;28.562;77.188;2022-12-16T16:45:26;249.50;;;171.83;;
26201;SDS011;13944;28.562;77.188;2022-12-16T16:48:13;247.77;;;170.77;;
26201;SDS011;13944;28.562;77.188;2022-12-16T16:50:59;271.10;;;177.07;;
26201;SDS011;13944;28.562;77.188;2022-12-16T16:53:44;268.37;;;174.20;;
26201;SDS011;13944;28.562;77.188;2022-12-16T16:56:32;254.60;;;171.43;;
26201;SDS011;13944;28.562;77.188;2022-12-16T16:59:17;281.97;;;188.00;;
26201;SDS011;13944;28.562;77.188;2022-12-16T17:02:02;270.90;;;193.50;;
26201;SDS011;13944;28.562;77.188;2022-12-16T17:04:47;271.77;;;193.63;;
26201;SDS011;13944;28.562;77.188;2022-12-16T17:07:32;274.93;;;200.90;;
26201;SDS011;13944;28.562;77.188;2022-12-16T17:10:17;312.00;;;224.40;;
26201;SDS011;13944;28.562;77.188;2022-12-16T17:13:02;300.43;;;212.10;;
26201;SDS011;13944;28.562;77.188;2022-12-16T17:15:47;279.27;;;196.03;;